Time;durP1;ratioP1;P1;durP2;ratioP2;P2;SDS_P1;SDS_P2;PMS_P1;PMS_P2;Temp;Humidity;BMP_temperature;BMP_pressure;BME280_temperature;BME280_humidity;BME280_pressure;Samples;Min_cycle;Max_cycle;Signal;HPM_P1;HPM_P2
2023/02/07 00:02:19;;;;;;;18.60;8.15;;;;;;;-2.85;78.53;101961.53;1689174;85;21149;-60
2023/02/07 00:04:50;;;;;;;19.00;8.10;;;;;;;-2.83;78.64;101965.87;1689290;85;21150;-59
2023/02/07 00:07:20;;;;;;;20.55;9.00;;;;;;;-2.83;78.83;101973.92;1692912;83;21102;-59
2023/02/07 00:09:50;;;;;;;22.25;8.18;;;;;;;-2.82;78.92;101952.86;1670146;85;21154;-59
2023/02/07 00:12:19;;;;;;;15.10;7.58;;;;;;;-2.80;79.00;101955.00;1689176;85;21174;-59
2023/02/07 00:14:49;;;;;;;19.65;8.50;;;;;;;-2.79;79.07;101946.48;1689462;85;21162;-57
2023/02/07 00:17:19;;;;;;;19.55;8.13;;;;;;;-2.78;79.14;101946.88;1685637;84;21194;-59
2023/02/07 00:19:50;;;;;;;18.32;8.20;;;;;;;-2.83;79.17;101948.92;1679996;85;21131;-58
2023/02/07 00:22:19;;;;;;;17.98;8.33;;;;;;;-2.85;79.40;101952.14;1679492;85;21198;-58
2023/02/07 00:24:49;;;;;;;16.82;7.58;;;;;;;-2.84;79.57;101943.16;1679893;85;21700;-59
2023/02/07 00:27:22;;;;;;;16.52;7.45;;;;;;;-2.79;79.65;101942.45;1679604;85;21643;-59
2023/02/07 00:29:51;;;;;;;14.95;7.80;;;;;;;-2.78;79.62;101928.97;1679622;85;21209;-58
2023/02/07 00:32:20;;;;;;;16.57;7.50;;;;;;;-2.74;79.60;101933.72;1679848;84;21141;-58
2023/02/07 00:34:52;;;;;;;16.97;9.10;;;;;;;-2.73;79.46;101930.95;1653228;85;21546;-59
2023/02/07 00:37:22;;;;;;;19.75;9.85;;;;;;;-2.79;79.39;101928.58;1679794;85;21161;-59
2023/02/07 00:39:52;;;;;;;19.90;9.83;;;;;;;-2.80;79.57;101926.84;1679721;85;21130;-59
2023/02/07 00:42:23;;;;;;;20.57;9.88;;;;;;;-2.83;79.61;101925.64;1679910;85;21135;-59
2023/02/07 00:44:56;;;;;;;17.40;9.03;;;;;;;-2.83;79.81;101929.67;1679832;85;21095;-60
2023/02/07 00:47:27;;;;;;;17.00;8.40;;;;;;;-2.83;79.96;101924.30;1679789;85;21110;-59
2023/02/07 00:49:58;;;;;;;15.78;8.08;;;;;;;-2.85;80.03;101926.19;1679837;85;21177;-59
2023/02/07 00:52:27;;;;;;;16.35;8.28;;;;;;;-2.84;80.05;101927.06;1679933;85;21189;-60
2023/02/07 00:54:56;;;;;;;15.15;7.72;;;;;;;-2.82;80.16;101915.78;1679838;85;21276;-58
2023/02/07 00:57:26;;;;;;;16.70;7.92;;;;;;;-2.83;80.19;101919.41;1679722;85;21554;-58
2023/02/07 00:59:56;;;;;;;16.10;7.58;;;;;;;-2.87;80.34;101916.88;1679803;85;21752;-58
2023/02/07 01:02:26;;;;;;;15.50;7.40;;;;;;;-2.88;80.33;101918.30;1679699;85;21115;-59
2023/02/07 01:04:58;;;;;;;16.80;7.25;;;;;;;-2.91;80.43;101916.62;1679639;85;21134;-58
2023/02/07 01:07:30;;;;;;;18.23;7.85;;;;;;;-2.88;80.57;101915.14;1679595;84;21155;-57
2023/02/07 01:10:00;;;;;;;19.27;8.48;;;;;;;-2.84;80.69;101914.99;1679815;84;21102;-59
2023/02/07 01:12:31;;;;;;;16.57;7.83;;;;;;;-2.82;80.60;101913.10;1679392;85;21130;-58
2023/02/07 01:15:02;;;;;;;17.57;8.38;;;;;;;-2.81;80.64;101919.73;1680038;85;21574;-57
2023/02/07 01:17:31;;;;;;;18.52;8.05;;;;;;;-2.84;80.66;101909.62;1685505;84;21139;-58
2023/02/07 01:20:05;;;;;;;15.18;8.45;;;;;;;-2.82;80.81;101913.10;1647792;87;21203;-58
2023/02/07 01:22:38;;;;;;;16.67;7.87;;;;;;;-2.81;80.94;101905.45;1647720;87;21168;-58
2023/02/07 01:25:08;;;;;;;18.95;8.25;;;;;;;-2.83;81.15;101910.03;1647517;87;21627;-60
2023/02/07 01:27:40;;;;;;;16.20;7.75;;;;;;;-2.85;81.32;101907.42;1647704;87;21156;-58
2023/02/07 01:30:12;;;;;;;16.40;7.42;;;;;;;-2.82;81.53;101901.91;1648043;87;21160;-65
2023/02/07 01:32:42;;;;;;;17.60;8.45;;;;;;;-2.77;81.49;101904.36;1647963;87;21172;-59
2023/02/07 01:35:12;;;;;;;15.40;7.25;;;;;;;-2.80;81.45;101899.14;1647910;87;21244;-60
2023/02/07 01:37:41;;;;;;;18.60;7.92;;;;;;;-2.84;81.56;101895.75;1661364;84;21171;-59
2023/02/07 01:40:12;;;;;;;15.18;7.53;;;;;;;-2.82;81.69;101895.67;1697370;84;21179;-62
2023/02/07 01:42:42;;;;;;;19.07;7.67;;;;;;;-2.79;81.80;101896.39;1696763;84;21142;-59
2023/02/07 01:45:35;;;;;;;18.87;7.47;;;;;;;-2.77;81.82;101891.81;1697100;84;21131;-60
2023/02/07 01:48:17;;;;;;;14.38;7.70;;;;;;;-2.77;81.92;101894.97;1697043;84;21527;-58
2023/02/07 01:50:51;;;;;;;17.32;9.40;;;;;;;-2.79;81.99;101888.81;1696895;84;21127;-58
2023/02/07 01:53:23;;;;;;;17.82;8.65;;;;;;;-2.80;81.97;101889.76;1702372;84;21625;-58
2023/02/07 01:55:58;;;;;;;12.47;6.78;;;;;;;-2.79;82.05;101885.66;1696941;84;21629;-58
2023/02/07 01:58:28;;;;;;;16.30;7.78;;;;;;;-2.77;82.07;101889.13;1696954;84;21166;-58
2023/02/07 02:01:03;;;;;;;18.98;8.00;;;;;;;-2.74;82.11;101884.96;1696920;84;21148;-59
2023/02/07 02:03:36;;;;;;;18.27;8.33;;;;;;;-2.71;82.11;101883.47;1680430;84;21154;-59
2023/02/07 02:06:06;;;;;;;15.72;7.85;;;;;;;-2.71;82.06;101882.13;1697133;84;21139;-58
2023/02/07 02:08:37;;;;;;;13.25;7.05;;;;;;;-2.68;82.10;101886.47;1696887;84;21155;-59
2023/02/07 02:11:26;;;;;;;16.23;7.87;;;;;;;-2.66;82.04;101883.23;1697068;84;21397;-59
2023/02/07 02:14:13;;;;;;;21.40;9.28;;;;;;;-2.66;82.08;101888.13;1673797;84;21163;-58
2023/02/07 02:17:18;;;;;;;20.80;9.33;;;;;;;-2.63;82.08;101888.45;1697046;84;21182;-60
2023/02/07 02:20:31;;;;;;;25.37;9.43;;;;;;;-2.62;82.05;101895.08;1684885;85;21137;-59
2023/02/07 02:23:15;;;;;;;22.30;9.55;;;;;;;-2.64;81.92;101886.70;1684763;84;21208;-58
2023/02/07 02:26:08;;;;;;;22.40;10.10;;;;;;;-2.66;82.01;101875.19;1634493;85;21149;-59
2023/02/07 02:28:50;;;;;;;23.92;9.90;;;;;;;-2.68;82.01;101868.55;1589037;90;21616;-60
2023/02/07 02:31:33;;;;;;;22.25;9.35;;;;;;;-2.68;82.06;101863.66;1589315;89;21237;-57
2023/02/07 02:34:29;;;;;;;21.07;8.68;;;;;;;-2.67;82.17;101866.74;1589346;90;21324;-58
2023/02/07 02:37:32;;;;;;;18.95;7.92;;;;;;;-2.69;82.31;101860.11;1589529;89;21177;-58
2023/02/07 02:40:24;;;;;;;19.48;8.20;;;;;;;-2.68;82.44;101866.34;1589382;89;21184;-58
2023/02/07 02:43:03;;;;;;;20.88;8.78;;;;;;;-2.71;82.55;101863.34;1589497;90;21616;-58
2023/02/07 02:45:41;;;;;;;20.50;8.25;;;;;;;-2.71;82.73;101864.69;1589595;89;21628;-59
2023/02/07 02:48:11;;;;;;;18.32;8.15;;;;;;;-2.68;82.84;101860.98;1684977;84;21164;-62
2023/02/07 02:50:43;;;;;;;18.37;9.05;;;;;;;-2.69;82.86;101868.16;1685045;85;21133;-58
2023/02/07 02:53:14;;;;;;;16.30;8.10;;;;;;;-2.68;82.96;101866.34;1662963;85;21173;-58
2023/02/07 02:56:36;;;;;;;14.87;7.10;;;;;;;-2.69;82.97;101864.61;1685058;85;21236;-59
2023/02/07 02:59:20;;;;;;;13.58;7.10;;;;;;;-2.66;83.04;101862.64;1685064;85;21161;-58
2023/02/07 03:02:37;;;;;;;16.20;7.17;;;;;;;-2.67;83.05;101864.05;1597979;88;21211;-57
2023/02/07 03:05:50;;;;;;;15.15;6.97;;;;;;;-2.70;83.16;101861.06;1685140;84;21121;-60
2023/02/07 03:08:36;;;;;;;18.98;8.68;;;;;;;-2.70;83.36;101857.03;1672471;84;21153;-58
2023/02/07 03:11:18;;;;;;;19.92;7.97;;;;;;;-2.69;83.50;101858.77;1684536;84;21256;-60
2023/02/07 03:13:59;;;;;;;16.45;6.83;;;;;;;-2.70;83.61;101858.84;1685127;85;21172;-58
2023/02/07 03:16:54;;;;;;;16.20;6.95;;;;;;;-2.70;83.82;101859.72;1670741;85;21205;-59
2023/02/07 03:19:31;;;;;;;14.83;5.75;;;;;;;-2.67;83.89;101867.61;1688533;84;21146;-59
2023/02/07 03:22:09;;;;;;;14.85;7.08;;;;;;;-2.66;84.00;101862.64;1669780;85;21102;-59
2023/02/07 03:24:42;;;;;;;13.65;6.08;;;;;;;-2.64;84.04;101863.91;1689508;85;21177;-58
2023/02/07 03:27:15;;;;;;;13.50;6.67;;;;;;;-2.65;84.14;101863.03;1689591;85;21153;-58
2023/02/07 03:29:48;;;;;;;12.90;6.03;;;;;;;-2.59;84.24;101856.52;1689498;85;21158;-59
2023/02/07 03:32:17;;;;;;;13.85;6.00;;;;;;;-2.58;84.10;101856.45;1688953;85;21188;-59
2023/02/07 03:34:53;;;;;;;12.80;5.80;;;;;;;-2.60;84.08;101863.70;1689363;85;21149;-59
2023/02/07 03:37:30;;;;;;;12.43;6.05;;;;;;;-2.58;84.20;101856.92;1689297;83;21142;-58
2023/02/07 03:39:59;;;;;;;12.75;6.50;;;;;;;-2.57;84.17;101856.84;1689497;85;21145;-58
2023/02/07 03:42:40;;;;;;;17.87;6.65;;;;;;;-2.60;84.05;101858.34;1689342;85;21165;-58
2023/02/07 03:45:13;;;;;;;14.68;6.60;;;;;;;-2.60;84.06;101852.97;1688934;85;21178;-60
2023/02/07 03:47:42;;;;;;;13.90;6.33;;;;;;;-2.59;84.04;101857.39;1689239;85;21122;-59
2023/02/07 03:50:12;;;;;;;14.07;6.35;;;;;;;-2.61;84.03;101857.91;1689121;85;21601;-60
2023/02/07 03:52:41;;;;;;;15.48;7.03;;;;;;;-2.61;84.06;101859.72;1689245;85;21133;-58
2023/02/07 03:55:11;;;;;;;11.20;6.20;;;;;;;-2.62;84.13;101860.67;1689136;85;21627;-59
2023/02/07 03:57:41;;;;;;;14.78;6.20;;;;;;;-2.59;84.13;101872.62;1689420;85;21132;-59
2023/02/07 04:00:11;;;;;;;16.35;7.08;;;;;;;-2.60;84.13;101861.02;1689273;85;21560;-66
2023/02/07 04:02:41;;;;;;;15.55;6.90;;;;;;;-2.55;84.16;101868.84;1689241;85;21122;-60
2023/02/07 04:05:10;;;;;;;11.83;6.20;;;;;;;-2.51;84.12;101868.20;1689103;85;21169;-59
2023/02/07 04:07:40;;;;;;;13.83;6.20;;;;;;;-2.50;83.97;101870.81;1689436;85;21121;-58
2023/02/07 04:10:10;;;;;;;13.32;7.10;;;;;;;-2.49;83.92;101875.23;1689184;85;21134;-58
2023/02/07 04:12:41;;;;;;;14.55;6.17;;;;;;;-2.48;83.87;101881.00;1689173;85;21550;-57
2023/02/07 04:15:10;;;;;;;11.28;5.95;;;;;;;-2.47;83.86;101884.08;1689334;85;21141;-58
2023/02/07 04:17:40;;;;;;;12.47;6.10;;;;;;;-2.46;83.76;101892.52;1692731;83;21442;-58
2023/02/07 04:20:11;;;;;;;10.80;5.30;;;;;;;-2.45;83.69;101890.70;1679905;85;21114;-58
2023/02/07 04:22:40;;;;;;;11.75;6.28;;;;;;;-2.43;83.66;101892.84;1679779;85;21115;-58
2023/02/07 04:25:12;;;;;;;12.20;5.70;;;;;;;-2.41;83.48;101903.89;1679729;85;21234;-58
2023/02/07 04:27:43;;;;;;;11.08;5.70;;;;;;;-2.38;83.43;101901.05;1653151;85;21193;-58
2023/02/07 04:30:13;;;;;;;8.75;4.78;;;;;;;-2.35;83.34;101901.37;1679658;85;21103;-59
2023/02/07 04:32:43;;;;;;;11.75;6.00;;;;;;;-2.34;83.19;101902.63;1679967;85;21151;-58
2023/02/07 04:35:13;;;;;;;11.00;5.20;;;;;;;-2.37;82.94;101906.81;1644348;85;21119;-59
2023/02/07 04:37:43;;;;;;;12.05;5.53;;;;;;;-2.40;82.90;101902.08;1679627;85;21115;-59
2023/02/07 04:40:13;;;;;;;10.23;5.20;;;;;;;-2.40;82.86;101906.11;1653151;85;21233;-58
2023/02/07 04:42:42;;;;;;;9.08;4.97;;;;;;;-2.36;82.95;101916.61;1679649;85;21237;-58
2023/02/07 04:45:13;;;;;;;10.43;5.15;;;;;;;-2.34;82.83;101912.50;1679694;85;21171;-59
2023/02/07 04:47:44;;;;;;;10.98;5.83;;;;;;;-2.31;82.74;101915.89;1679818;85;21569;-58
2023/02/07 04:50:14;;;;;;;11.03;5.20;;;;;;;-2.31;82.56;101921.73;1679623;85;21225;-59
2023/02/07 04:52:44;;;;;;;12.13;5.85;;;;;;;-2.33;82.48;101921.81;1653204;85;21750;-58
2023/02/07 04:55:14;;;;;;;11.93;5.45;;;;;;;-2.30;82.50;101920.80;1679799;85;21130;-57
2023/02/07 04:57:43;;;;;;;10.20;5.25;;;;;;;-2.31;82.25;101929.32;1679787;85;21171;-60
2023/02/07 05:00:14;;;;;;;13.18;5.92;;;;;;;-2.36;82.05;101931.37;1679763;84;21178;-58
2023/02/07 05:02:44;;;;;;;11.43;5.83;;;;;;;-2.40;82.08;101934.28;1679883;84;21296;-59
2023/02/07 05:05:14;;;;;;;12.25;6.33;;;;;;;-2.43;82.14;101935.31;1679673;85;21527;-59
2023/02/07 05:07:43;;;;;;;11.83;5.92;;;;;;;-2.46;82.10;101939.96;1645012;85;21562;-59
2023/02/07 05:10:13;;;;;;;11.45;5.90;;;;;;;-2.49;82.10;101938.30;1644794;85;21150;-59
2023/02/07 05:12:43;;;;;;;12.75;6.33;;;;;;;-2.52;82.28;101945.16;1679724;85;21132;-59
2023/02/07 05:15:13;;;;;;;12.78;6.17;;;;;;;-2.50;82.34;101948.63;1679869;85;21249;-58
2023/02/07 05:17:44;;;;;;;12.25;6.10;;;;;;;-2.48;82.39;101945.41;1679657;85;21170;-59
2023/02/07 05:20:14;;;;;;;14.23;6.33;;;;;;;-2.50;82.23;101955.34;1679512;84;21281;-60
2023/02/07 05:22:44;;;;;;;13.85;6.20;;;;;;;-2.53;82.28;101955.50;1653301;85;21155;-59
2023/02/07 05:25:15;;;;;;;11.88;5.62;;;;;;;-2.57;82.16;101956.13;1680003;85;21177;-58
2023/02/07 05:27:45;;;;;;;10.60;5.35;;;;;;;-2.54;82.13;101958.26;1679834;85;21098;-59
2023/02/07 05:30:14;;;;;;;10.32;5.25;;;;;;;-2.56;81.82;101958.33;1679779;85;21126;-59
2023/02/07 05:33:03;;;;;;;11.05;4.83;;;;;;;-2.59;81.56;101961.16;1679577;85;21177;-58
2023/02/07 05:35:39;;;;;;;12.15;5.00;;;;;;;-2.62;81.38;101967.98;1679791;85;21103;-59
2023/02/07 05:38:12;;;;;;;12.37;6.30;;;;;;;-2.67;81.25;101971.38;1679742;85;21174;-59
2023/02/07 05:40:44;;;;;;;10.98;4.80;;;;;;;-2.67;81.09;101983.44;1653826;85;21703;-58
2023/02/07 05:43:14;;;;;;;9.58;5.05;;;;;;;-2.66;81.07;101982.50;1679601;85;21112;-59
2023/02/07 05:45:44;;;;;;;11.57;5.10;;;;;;;-2.66;80.92;101983.84;1679923;85;21629;-57
2023/02/07 05:48:16;;;;;;;10.48;5.10;;;;;;;-2.67;80.69;101987.00;1679568;85;21995;-58
2023/02/07 05:50:47;;;;;;;10.45;5.17;;;;;;;-2.69;80.44;101990.22;1679907;85;21285;-58
2023/02/07 05:53:18;;;;;;;9.63;5.28;;;;;;;-2.75;80.21;101993.67;1653170;85;21139;-59
2023/02/07 05:55:51;;;;;;;10.28;5.30;;;;;;;-2.77;80.39;101994.22;1679667;85;21178;-59
2023/02/07 05:58:21;;;;;;;11.05;5.70;;;;;;;-2.75;80.43;101999.91;1679726;85;21245;-60
2023/02/07 06:00:54;;;;;;;12.33;5.45;;;;;;;-2.77;80.23;101991.06;1679886;85;21640;-57
2023/02/07 06:03:24;;;;;;;11.28;6.03;;;;;;;-2.77;80.28;101992.41;1653918;85;21134;-57
2023/02/07 06:05:55;;;;;;;13.10;5.83;;;;;;;-2.79;80.30;101994.77;1644275;85;21185;-59
2023/02/07 06:08:25;;;;;;;11.75;6.12;;;;;;;-2.84;80.17;101994.98;1679600;85;21103;-59
2023/02/07 06:10:56;;;;;;;12.03;6.03;;;;;;;-2.84;80.24;102003.03;1600373;89;21189;-60
2023/02/07 06:13:26;;;;;;;11.65;6.10;;;;;;;-2.84;80.23;102001.69;1600329;90;21191;-58
2023/02/07 06:15:56;;;;;;;15.60;6.92;;;;;;;-2.82;80.24;102005.64;1600636;90;21228;-59
2023/02/07 06:18:27;;;;;;;11.83;6.62;;;;;;;-2.79;80.19;102002.34;1601077;88;21188;-58
2023/02/07 06:20:56;;;;;;;14.80;5.92;;;;;;;-2.80;80.10;102008.64;1622965;88;21583;-59
2023/02/07 06:23:26;;;;;;;13.05;5.45;;;;;;;-2.80;80.11;102006.44;1622876;88;21556;-58
2023/02/07 06:25:55;;;;;;;10.60;5.85;;;;;;;-2.75;80.17;102006.61;1622750;88;21167;-58
2023/02/07 06:28:27;;;;;;;10.80;5.78;;;;;;;-2.71;79.82;102012.70;1618707;84;21242;-57
2023/02/07 06:30:57;;;;;;;12.65;5.92;;;;;;;-2.72;79.73;102011.84;1699588;84;21143;-58
2023/02/07 06:33:27;;;;;;;13.75;6.47;;;;;;;-2.71;79.65;102018.06;1707320;84;21147;-59
2023/02/07 06:35:56;;;;;;;16.50;6.65;;;;;;;-2.73;79.54;102024.84;1683989;84;21225;-58
2023/02/07 06:38:26;;;;;;;14.10;6.10;;;;;;;-2.72;79.47;102031.09;1699434;84;21225;-59
2023/02/07 06:40:58;;;;;;;14.35;6.40;;;;;;;-2.74;79.37;102025.80;1699517;84;21135;-58
2023/02/07 06:43:31;;;;;;;13.20;6.92;;;;;;;-2.71;79.28;102028.80;1699444;84;21174;-58
2023/02/07 06:46:01;;;;;;;12.37;6.17;;;;;;;-2.70;79.22;102041.27;1699652;84;21183;-59
2023/02/07 06:48:31;;;;;;;12.73;6.45;;;;;;;-2.73;79.10;102042.75;1699645;84;21206;-59
2023/02/07 06:51:02;;;;;;;16.32;6.65;;;;;;;-2.74;79.07;102045.05;1699462;84;21178;-59
2023/02/07 06:53:32;;;;;;;14.15;6.97;;;;;;;-2.71;79.29;102048.92;1699683;84;21138;-61
2023/02/07 06:56:02;;;;;;;14.25;7.00;;;;;;;-2.65;79.28;102052.66;1699487;84;21185;-59
2023/02/07 06:58:33;;;;;;;19.25;9.03;;;;;;;-2.66;79.05;102046.42;1699625;84;21201;-59
2023/02/07 07:01:03;;;;;;;15.18;7.22;;;;;;;-2.70;78.83;102053.34;1699549;84;21179;-59
2023/02/07 07:03:33;;;;;;;15.35;7.58;;;;;;;-2.73;78.81;102056.17;1699684;84;21130;-58
2023/02/07 07:06:04;;;;;;;15.72;6.97;;;;;;;-2.73;78.71;102053.48;1699649;84;21131;-58
2023/02/07 07:08:33;;;;;;;14.23;7.40;;;;;;;-2.75;78.36;102064.77;1684015;84;21186;-58
2023/02/07 07:11:04;;;;;;;16.73;7.67;;;;;;;-2.82;78.42;102057.47;1699644;84;21175;-59
2023/02/07 07:13:34;;;;;;;16.12;6.87;;;;;;;-2.80;78.46;102060.95;1699650;84;21220;-59
2023/02/07 07:16:07;;;;;;;16.00;8.13;;;;;;;-2.79;78.47;102060.01;1684172;84;21123;-60
2023/02/07 07:18:39;;;;;;;19.00;7.47;;;;;;;-2.77;78.50;102058.13;1699368;84;21107;-61
2023/02/07 07:21:08;;;;;;;29.52;9.20;;;;;;;-2.77;78.48;102061.28;1684945;84;21141;-60
2023/02/07 07:23:37;;;;;;;17.95;8.13;;;;;;;-2.75;78.71;102068.78;1688322;84;21165;-58
2023/02/07 07:26:07;;;;;;;17.15;7.80;;;;;;;-2.72;78.86;102071.33;1684987;85;21253;-59
2023/02/07 07:28:38;;;;;;;18.10;7.87;;;;;;;-2.69;78.87;102073.86;1687751;85;21133;-59
2023/02/07 07:31:09;;;;;;;14.45;7.22;;;;;;;-2.63;78.91;102074.92;1684952;85;21140;-60
2023/02/07 07:33:40;;;;;;;18.45;7.80;;;;;;;-2.58;78.69;102076.95;1684773;85;21157;-58
2023/02/07 07:36:10;;;;;;;17.05;7.50;;;;;;;-2.57;78.56;102074.66;1685090;84;21133;-58
2023/02/07 07:38:40;;;;;;;13.93;6.33;;;;;;;-2.55;78.67;102071.43;1684949;84;21133;-60
2023/02/07 07:41:14;;;;;;;11.03;5.80;;;;;;;-2.55;78.06;102066.06;1684794;84;21568;-59
2023/02/07 07:43:46;;;;;;;11.65;6.10;;;;;;;-2.51;77.74;102061.42;1684930;84;21125;-57
2023/02/07 07:46:23;;;;;;;11.43;5.95;;;;;;;-2.46;77.68;102066.97;1684855;84;21122;-57
2023/02/07 07:48:56;;;;;;;17.57;7.75;;;;;;;-2.37;77.58;102078.60;1608548;88;21265;-59
2023/02/07 07:51:27;;;;;;;12.95;5.67;;;;;;;-2.30;77.50;102076.49;1528431;94;21304;-59
2023/02/07 07:53:59;;;;;;;10.28;5.62;;;;;;;-2.24;77.28;102080.22;1528775;93;21181;-59
2023/02/07 07:56:30;;;;;;;18.15;6.53;;;;;;;-2.18;76.80;102082.61;1528313;94;21165;-60
2023/02/07 07:59:01;;;;;;;15.05;6.30;;;;;;;-2.11;76.46;102083.18;1528060;94;21230;-58
2023/02/07 08:01:33;;;;;;;14.98;6.40;;;;;;;-2.04;75.79;102075.22;1510485;94;21220;-58
2023/02/07 08:04:04;;;;;;;12.78;5.78;;;;;;;-1.90;75.91;102079.94;1528561;94;21211;-60
2023/02/07 08:06:34;;;;;;;14.18;6.60;;;;;;;-1.74;75.20;102087.14;1550678;89;21158;-59
2023/02/07 08:09:04;;;;;;;14.33;6.62;;;;;;;-1.61;75.04;102089.61;1601223;88;21186;-61
2023/02/07 08:11:34;;;;;;;13.80;6.92;;;;;;;-1.46;74.40;102086.61;1601140;89;21265;-59
2023/02/07 08:14:04;;;;;;;15.88;7.17;;;;;;;-1.31;73.80;102102.41;1601219;89;21625;-61
2023/02/07 08:16:35;;;;;;;13.65;7.10;;;;;;;-1.07;73.63;102103.84;1661336;84;21109;-60
2023/02/07 08:19:04;;;;;;;12.07;6.47;;;;;;;-0.70;73.58;102115.32;1688562;84;21134;-59
2023/02/07 08:21:37;;;;;;;16.05;7.25;;;;;;;-0.38;71.43;102111.76;1689253;83;21166;-59
2023/02/07 08:24:08;;;;;;;12.05;6.70;;;;;;;-0.32;70.33;102118.63;1689217;85;21158;-62
2023/02/07 08:26:39;;;;;;;12.70;6.53;;;;;;;-0.29;70.05;102126.53;1689269;85;21182;-59
2023/02/07 08:29:08;;;;;;;16.07;7.17;;;;;;;-0.19;69.76;102131.80;1689552;85;21150;-59
2023/02/07 08:32:00;;;;;;;12.55;6.78;;;;;;;-0.06;68.64;102138.71;1689411;85;21133;-59
2023/02/07 08:34:36;;;;;;;13.22;6.60;;;;;;;-0.07;67.60;102131.10;1701353;84;21171;-58
2023/02/07 08:37:07;;;;;;;13.78;7.40;;;;;;;-0.16;67.59;102136.14;1701371;83;21144;-59
2023/02/07 08:39:38;;;;;;;13.32;6.95;;;;;;;-0.23;68.10;102130.70;1701593;84;21129;-60
2023/02/07 08:42:09;;;;;;;12.23;6.42;;;;;;;-0.21;68.34;102138.23;1701597;84;21560;-60
2023/02/07 08:44:40;;;;;;;14.07;7.22;;;;;;;-0.19;67.95;102136.31;1701254;84;21121;-61
2023/02/07 08:47:10;;;;;;;13.50;6.35;;;;;;;-0.33;67.68;102135.27;1701897;83;21128;-60
2023/02/07 08:49:44;;;;;;;14.45;6.33;;;;;;;-0.48;67.61;102135.23;1701574;84;21148;-59
2023/02/07 08:52:14;;;;;;;13.35;6.75;;;;;;;-0.54;67.84;102134.23;1701257;83;21145;-62
2023/02/07 08:54:44;;;;;;;16.87;6.87;;;;;;;-0.55;68.17;102130.67;1701640;84;21576;-58
2023/02/07 08:57:14;;;;;;;13.50;6.83;;;;;;;-0.54;68.30;102139.14;1701579;84;21168;-60
2023/02/07 08:59:44;;;;;;;15.35;6.85;;;;;;;-0.61;68.34;102132.83;1701861;84;21197;-63
2023/02/07 09:02:15;;;;;;;16.23;7.35;;;;;;;-0.70;68.88;102136.38;1701517;83;21567;-59
2023/02/07 09:04:44;;;;;;;13.50;6.72;;;;;;;-0.66;69.47;102135.73;1699151;83;21214;-60
2023/02/07 09:07:15;;;;;;;15.90;6.85;;;;;;;-0.67;69.26;102136.21;1687880;83;21566;-61
2023/02/07 09:09:44;;;;;;;13.58;6.70;;;;;;;-0.63;68.92;102140.12;1687821;85;21162;-61
2023/02/07 09:12:14;;;;;;;17.55;7.00;;;;;;;-0.64;68.35;102133.86;1701191;84;21170;-62
2023/02/07 09:14:44;;;;;;;16.00;6.50;;;;;;;-0.67;68.10;102138.03;1701400;84;21222;-59
2023/02/07 09:17:16;;;;;;;13.22;7.08;;;;;;;-0.69;67.74;102134.56;1688160;85;21293;-60
2023/02/07 09:19:45;;;;;;;12.90;6.72;;;;;;;-0.74;67.84;102137.50;1687792;84;21586;-61
2023/02/07 09:22:15;;;;;;;16.73;8.65;;;;;;;-0.74;68.09;102142.88;1687608;84;21217;-63
2023/02/07 09:24:44;;;;;;;15.35;7.47;;;;;;;-0.73;67.99;102135.20;1687792;85;21858;-65
2023/02/07 09:27:13;;;;;;;16.40;7.62;;;;;;;-0.75;67.98;102138.92;1688296;85;21179;-64
2023/02/07 09:29:43;;;;;;;13.30;6.97;;;;;;;-0.82;67.87;102138.38;1687827;84;21158;-64
2023/02/07 09:32:13;;;;;;;14.85;7.25;;;;;;;-0.86;68.32;102139.98;1687399;84;21190;-68
2023/02/07 09:34:43;;;;;;;14.15;6.97;;;;;;;-0.99;67.73;102135.25;1685638;83;21190;-66
2023/02/07 09:37:13;;;;;;;15.10;7.25;;;;;;;-1.03;68.52;102140.39;1652310;87;21118;-67
2023/02/07 09:39:43;;;;;;;12.30;6.37;;;;;;;-1.05;68.26;102128.84;1680009;84;21174;-65
2023/02/07 09:42:32;;;;;;;13.53;6.80;;;;;;;-1.06;68.17;102137.00;1678396;84;21122;-67
2023/02/07 09:45:05;;;;;;;11.88;5.85;;;;;;;-1.07;68.30;102133.91;1673018;85;21188;-70
2023/02/07 09:47:35;;;;;;;15.58;7.22;;;;;;;-1.06;67.68;102137.86;1672980;85;21196;-68
2023/02/07 09:50:18;;;;;;;13.13;6.75;;;;;;;-1.07;67.30;102140.16;1656443;86;21191;-67
2023/02/07 09:53:15;;;;;;;12.33;6.22;;;;;;;-1.08;66.97;102134.38;1674847;83;21176;-68
2023/02/07 09:55:50;;;;;;;14.33;6.30;;;;;;;-1.09;66.83;102133.98;1687760;83;21186;-68
2023/02/07 09:58:28;;;;;;;12.05;6.05;;;;;;;-1.14;66.35;102135.19;1688091;84;21254;-70
2023/02/07 10:01:23;;;;;;;10.10;5.67;;;;;;;-1.19;66.78;102130.05;1687282;83;21103;-70
2023/02/07 10:04:21;;;;;;;8.65;4.40;;;;;;;-1.18;66.34;102141.67;1683457;84;21188;-69
2023/02/07 10:06:52;;;;;;;;;;;;;;;-1.22;63.72;102141.44;1703738;84;21227;-68
2023/02/07 10:09:33;;;;;;;7.00;3.75;;;;;;;-1.27;63.22;102150.22;1700488;84;20217;-68
2023/02/07 10:12:27;;;;;;;9.00;4.15;;;;;;;-1.31;63.41;102149.00;1682384;83;21637;-68
2023/02/07 10:15:32;;;;;;;7.37;4.25;;;;;;;-1.31;63.17;102144.09;1699529;84;21189;-67
2023/02/07 10:18:44;;;;;;;9.33;4.37;;;;;;;-1.31;62.82;102142.75;1715981;83;21129;-67
2023/02/07 10:21:32;;;;;;;8.23;4.28;;;;;;;-1.33;62.44;102141.95;1704944;83;21216;-66
2023/02/07 10:24:32;;;;;;;6.80;4.45;;;;;;;-1.26;63.08;102146.58;1655233;86;21181;-65
2023/02/07 10:27:12;;;;;;;9.80;4.78;;;;;;;-1.26;62.38;102148.80;1654905;85;21295;-66
2023/02/07 10:30:09;;;;;;;7.58;4.15;;;;;;;-1.25;62.49;102146.97;1654888;87;21215;-67
2023/02/07 10:32:41;;;;;;;6.17;3.47;;;;;;;-1.23;62.74;102160.73;1653638;86;21162;-67
2023/02/07 10:35:23;;;;;;;7.87;4.12;;;;;;;-1.24;61.81;102156.31;1654960;86;21217;-66
2023/02/07 10:37:56;;;;;;;9.50;4.47;;;;;;;-1.29;61.76;102161.05;1655181;87;21169;-66
2023/02/07 10:40:33;;;;;;;12.15;5.75;;;;;;;-1.36;62.58;102157.77;1636888;86;21166;-67
2023/02/07 10:43:07;;;;;;;;;;;;;;;-1.38;61.92;102169.08;1636007;87;21156;-66
2023/02/07 10:45:38;;;;;;;12.00;4.97;;;;;;;-1.40;62.12;102164.73;1645581;86;20467;-67
2023/02/07 10:48:19;;;;;;;11.55;5.50;;;;;;;-1.38;62.64;102170.90;1622507;87;21148;-68
2023/02/07 10:50:56;;;;;;;7.90;3.55;;;;;;;-1.38;62.51;102161.02;1648806;86;21164;-67
2023/02/07 10:53:46;;;;;;;10.82;4.75;;;;;;;-1.32;62.46;102170.11;1641419;87;21160;-67
2023/02/07 10:56:23;;;;;;;8.40;3.87;;;;;;;-1.29;62.57;102163.74;1648780;87;21192;-69
2023/02/07 10:58:55;;;;;;;10.18;4.20;;;;;;;-1.25;61.98;102163.98;1649017;86;21152;-69
2023/02/07 11:01:26;;;;;;;8.63;4.08;;;;;;;-1.24;62.70;102161.69;1640417;87;21491;-68
2023/02/07 11:03:55;;;;;;;5.70;3.60;;;;;;;-1.20;63.05;102175.84;1656085;85;21205;-69
2023/02/07 11:06:32;;;;;;;8.50;4.05;;;;;;;-1.18;62.58;102179.33;1609401;88;21129;-70
2023/02/07 11:09:23;;;;;;;8.58;3.83;;;;;;;-1.17;61.48;102177.03;1620964;88;21177;-69
2023/02/07 11:11:53;;;;;;;11.97;5.97;;;;;;;-1.22;61.15;102176.39;1628522;88;21154;-68
2023/02/07 11:14:30;;;;;;;11.70;5.72;;;;;;;-1.24;61.34;102174.26;1614369;88;21201;-71
2023/02/07 11:17:02;;;;;;;7.92;4.03;;;;;;;-1.20;60.97;102177.19;1573970;91;21163;-67
2023/02/07 11:19:31;;;;;;;10.85;4.97;;;;;;;-1.17;61.02;102173.00;1525758;91;21167;-67
2023/02/07 11:22:19;;;;;;;7.53;3.70;;;;;;;-1.16;60.50;102180.12;1583831;89;21159;-67
2023/02/07 11:24:52;;;;;;;9.53;4.30;;;;;;;-1.21;60.47;102176.32;1638354;86;21177;-66
2023/02/07 11:27:22;;;;;;;7.85;4.08;;;;;;;-1.24;59.95;102181.86;1642268;86;21173;-65
2023/02/07 11:29:56;;;;;;;5.60;2.95;;;;;;;-1.29;59.41;102180.75;1660793;86;21181;-67
2023/02/07 11:32:27;;;;;;;12.20;4.75;;;;;;;-1.30;59.35;102184.38;1659544;86;21212;-67
2023/02/07 11:35:00;;;;;;;6.72;3.40;;;;;;;-1.26;59.75;102182.41;1660724;86;21208;-68
2023/02/07 11:37:38;;;;;;;7.87;3.27;;;;;;;-1.23;59.07;102184.06;1673182;85;21158;-65
2023/02/07 11:40:24;;;;;;;9.28;4.28;;;;;;;-1.19;59.68;102181.62;1660500;86;21177;-66
2023/02/07 11:43:14;;;;;;;6.10;3.10;;;;;;;-1.14;59.17;102185.81;1667341;85;21138;-65
2023/02/07 11:45:46;;;;;;;7.33;3.50;;;;;;;-1.11;58.84;102188.82;1678371;84;21169;-65
2023/02/07 11:48:28;;;;;;;8.25;4.12;;;;;;;-1.11;59.06;102196.41;1678476;84;21150;-66
2023/02/07 11:51:02;;;;;;;10.55;4.80;;;;;;;-1.06;59.48;102199.73;1670283;84;21574;-66
2023/02/07 11:53:44;;;;;;;9.58;3.92;;;;;;;-1.07;58.20;102198.00;1678700;84;21577;-65